createdAt,value
2022-12-05T00:02:26.180Z,8.40
2022-12-05T00:04:52.752Z,8.27
2022-12-05T00:07:19.263Z,8.90
2022-12-05T00:09:45.937Z,8.30
2022-12-05T00:12:12.441Z,7.83
2022-12-05T00:14:38.946Z,8.97
2022-12-05T00:17:06.882Z,8.13
2022-12-05T00:19:33.445Z,8.57
2022-12-05T00:21:59.950Z,8.70
2022-12-05T00:24:26.498Z,8.30
2022-12-05T00:26:53.002Z,8.40
2022-12-05T00:29:19.795Z,7.63
2022-12-05T00:31:46.447Z,8.17
2022-12-05T00:34:14.468Z,8.70
2022-12-05T00:36:41.004Z,7.93
2022-12-05T00:39:09.314Z,8.00
2022-12-05T00:41:36.216Z,8.10
2022-12-05T00:44:03.948Z,8.17
2022-12-05T00:46:31.812Z,8.03
2022-12-05T00:49:00.159Z,8.37
2022-12-05T00:51:30.282Z,7.67
2022-12-05T00:53:58.858Z,8.37
2022-12-05T00:56:27.084Z,7.83
2022-12-05T00:58:54.902Z,7.63
2022-12-05T01:01:23.827Z,7.87
2022-12-05T01:03:53.465Z,7.40
2022-12-05T01:06:20.265Z,7.67
2022-12-05T01:08:48.439Z,8.03
2022-12-05T01:11:16.942Z,7.43
2022-12-05T01:13:43.491Z,8.17
2022-12-05T01:16:14.078Z,7.43
2022-12-05T01:18:40.894Z,7.73
2022-12-05T01:21:08.145Z,7.50
2022-12-05T01:23:34.681Z,7.83
2022-12-05T01:26:06.032Z,8.20
2022-12-05T01:28:32.679Z,7.50
2022-12-05T01:31:03.926Z,6.87
2022-12-05T01:33:30.463Z,7.30
2022-12-05T01:35:56.942Z,7.53
2022-12-05T01:38:23.489Z,7.27
2022-12-05T01:40:50.043Z,7.57
2022-12-05T01:43:19.367Z,7.27
2022-12-05T01:45:46.543Z,6.80
2022-12-05T01:48:17.594Z,8.00
2022-12-05T01:50:44.572Z,7.40
2022-12-05T01:53:11.220Z,7.33
2022-12-05T01:55:38.606Z,7.53
2022-12-05T01:58:07.327Z,7.37
2022-12-05T02:00:35.500Z,7.70
2022-12-05T02:03:06.940Z,7.03
2022-12-05T02:05:34.956Z,7.23
2022-12-05T02:08:04.681Z,7.37
2022-12-05T02:10:35.853Z,7.10
2022-12-05T02:13:12.396Z,7.80
2022-12-05T02:15:45.534Z,7.90
2022-12-05T02:18:24.722Z,6.87
2022-12-05T02:21:06.775Z,7.27
2022-12-05T02:23:49.043Z,7.67
2022-12-05T02:26:38.927Z,7.20
2022-12-05T02:29:33.676Z,7.53
2022-12-05T02:32:06.819Z,6.77
2022-12-05T02:34:38.422Z,7.57
2022-12-05T02:37:11.649Z,7.10
2022-12-05T02:39:45.218Z,7.30
2022-12-05T02:42:15.696Z,7.23
2022-12-05T02:44:48.195Z,6.97
2022-12-05T02:47:19.804Z,7.40
2022-12-05T02:49:47.196Z,7.53
2022-12-05T02:52:15.589Z,7.73
2022-12-05T02:54:44.682Z,6.77
2022-12-05T02:57:13.282Z,7.43
2022-12-05T02:59:39.812Z,7.43
2022-12-05T03:02:08.626Z,7.87
2022-12-05T03:04:37.423Z,7.53
2022-12-05T03:07:08.349Z,7.33
2022-12-05T03:09:37.571Z,7.47
2022-12-05T03:12:10.124Z,7.97
2022-12-05T03:14:41.622Z,7.60
2022-12-05T03:17:11.443Z,8.57
2022-12-05T03:19:45.567Z,8.53
2022-12-05T03:22:18.889Z,9.10
2022-12-05T03:24:45.490Z,8.60
2022-12-05T03:27:20.541Z,8.77
2022-12-05T03:29:51.522Z,9.07
2022-12-05T03:32:23.449Z,9.27
2022-12-05T03:35:01.824Z,7.90
2022-12-05T03:37:41.086Z,8.47
2022-12-05T03:40:15.078Z,8.03
2022-12-05T03:42:52.395Z,8.37
2022-12-05T03:45:26.203Z,9.00
2022-12-05T03:47:59.944Z,10.17
2022-12-05T03:50:29.652Z,8.23
2022-12-05T03:55:52.818Z,7.83
2022-12-05T03:58:25.932Z,8.53
2022-12-05T04:00:54.198Z,9.73
2022-12-05T04:03:25.731Z,10.00
2022-12-05T04:05:57.721Z,9.33
2022-12-05T04:08:29.036Z,8.23
2022-12-05T04:10:59.738Z,8.20
2022-12-05T04:13:30.290Z,8.43
2022-12-05T04:16:01.553Z,8.73
2022-12-05T04:18:28.896Z,9.23
2022-12-05T04:20:58.509Z,9.13
2022-12-05T04:23:26.509Z,10.10
2022-12-05T04:26:00.702Z,9.63
2022-12-05T04:28:32.094Z,9.90
2022-12-05T04:31:05.374Z,8.40
2022-12-05T04:33:36.725Z,8.73
2022-12-05T04:36:12.125Z,9.03
2022-12-05T04:38:43.384Z,9.83
2022-12-05T04:41:14.958Z,10.37
2022-12-05T04:43:43.535Z,10.30
2022-12-05T04:46:13.511Z,10.30
2022-12-05T04:48:42.567Z,9.73
2022-12-05T04:51:16.083Z,9.13
2022-12-05T04:53:45.300Z,9.30
2022-12-05T04:56:15.986Z,9.53
2022-12-05T04:58:42.624Z,9.03
2022-12-05T05:01:14.937Z,9.90
2022-12-05T05:03:45.682Z,10.73
2022-12-05T05:06:14.826Z,10.43
2022-12-05T05:08:47.423Z,9.80
2022-12-05T05:11:17.400Z,10.10
2022-12-05T05:13:43.992Z,9.17
2022-12-05T05:16:14.892Z,9.13
2022-12-05T05:18:41.476Z,9.63
2022-12-05T05:21:19.751Z,10.53
2022-12-05T05:23:46.828Z,9.90
2022-12-05T05:26:13.901Z,11.00
2022-12-05T05:28:40.841Z,10.57
2022-12-05T05:31:07.640Z,9.10
2022-12-05T05:33:35.159Z,8.70
2022-12-05T05:36:06.160Z,9.90
2022-12-05T05:38:37.455Z,9.37
2022-12-05T05:41:04.498Z,8.80
2022-12-05T05:43:31.476Z,8.30
2022-12-05T05:45:58.228Z,8.43
2022-12-05T05:48:24.762Z,8.73
2022-12-05T05:50:51.297Z,9.47
2022-12-05T05:53:17.833Z,9.07
2022-12-05T05:55:45.700Z,8.77
2022-12-05T05:58:12.214Z,8.77
2022-12-05T06:00:38.780Z,8.23
2022-12-05T06:03:05.456Z,9.33
2022-12-05T06:05:32.101Z,10.23
2022-12-05T06:07:58.683Z,9.53
2022-12-05T06:10:25.297Z,9.77
2022-12-05T06:12:53.183Z,9.00
2022-12-05T06:15:19.694Z,9.00
2022-12-05T06:17:46.238Z,8.70
2022-12-05T06:20:13.514Z,9.40
2022-12-05T06:22:40.055Z,9.90
2022-12-05T06:25:07.830Z,10.57
2022-12-05T06:27:34.635Z,10.70
2022-12-05T06:30:02.568Z,10.50
2022-12-05T06:32:29.308Z,9.87
2022-12-05T06:34:55.853Z,11.13
2022-12-05T06:37:22.393Z,9.73
2022-12-05T06:39:50.885Z,10.20
2022-12-05T06:42:17.443Z,9.60
2022-12-05T06:44:43.939Z,11.07
2022-12-05T06:47:11.827Z,10.00
2022-12-05T06:49:38.480Z,10.07
2022-12-05T06:52:05.142Z,9.87
2022-12-05T06:54:31.673Z,8.83
2022-12-05T06:56:58.205Z,9.07
2022-12-05T06:59:24.786Z,9.13
2022-12-05T07:01:51.450Z,9.37
2022-12-05T07:04:21.162Z,9.53
2022-12-05T07:06:50.804Z,8.60
2022-12-05T07:09:19.179Z,9.27
2022-12-05T07:11:47.371Z,10.77
2022-12-05T07:14:31.166Z,10.93
2022-12-05T07:17:00.765Z,9.20
2022-12-05T07:19:28.855Z,9.63
2022-12-05T07:21:55.448Z,9.90
2022-12-05T07:24:21.991Z,8.43
2022-12-05T07:26:48.492Z,9.57
2022-12-05T07:29:15.021Z,7.97
2022-12-05T07:31:41.593Z,8.37
2022-12-05T07:34:08.147Z,8.80
2022-12-05T07:36:36.034Z,8.53
2022-12-05T07:39:03.478Z,8.17
2022-12-05T07:41:32.304Z,8.73
2022-12-05T07:44:00.374Z,8.63
2022-12-05T07:46:28.139Z,9.37
2022-12-05T07:48:54.996Z,8.90
2022-12-05T07:51:21.760Z,10.17
2022-12-05T07:53:49.759Z,8.70
2022-12-05T07:56:17.478Z,9.07
2022-12-05T07:58:45.235Z,8.10
2022-12-05T08:01:13.869Z,9.00
2022-12-05T08:03:40.717Z,8.37
2022-12-05T08:06:09.137Z,8.63
2022-12-05T08:08:35.822Z,8.10
2022-12-05T08:11:09.084Z,8.60
2022-12-05T08:13:35.861Z,9.30
2022-12-05T08:16:03.182Z,9.33
2022-12-05T08:18:30.084Z,9.73
2022-12-05T08:21:01.447Z,8.80
2022-12-05T08:23:28.996Z,8.60
2022-12-05T08:25:55.536Z,8.53
2022-12-05T08:28:23.401Z,8.70
2022-12-05T08:30:49.993Z,9.40
2022-12-05T08:33:16.544Z,8.97
2022-12-05T08:35:43.397Z,11.57
2022-12-05T08:38:09.895Z,14.43
2022-12-05T08:40:36.408Z,11.23
2022-12-05T08:43:02.926Z,9.47
2022-12-05T08:45:30.813Z,9.33
2022-12-05T08:47:57.330Z,8.77
2022-12-05T08:50:23.830Z,8.87
2022-12-05T08:52:50.318Z,8.30
2022-12-05T08:55:16.943Z,8.53
2022-12-05T08:57:43.459Z,8.87
2022-12-05T09:00:10.942Z,8.97
2022-12-05T09:02:38.931Z,10.67
2022-12-05T09:05:26.555Z,8.77
2022-12-05T09:07:53.889Z,9.53
2022-12-05T09:10:20.469Z,9.07
2022-12-05T09:12:47.045Z,9.57
2022-12-05T09:15:13.609Z,11.37
2022-12-05T09:17:41.498Z,11.97
2022-12-05T09:20:08.983Z,11.23
2022-12-05T09:22:35.496Z,9.83
2022-12-05T09:25:01.983Z,8.97
2022-12-05T09:27:28.977Z,9.43
2022-12-05T09:29:56.107Z,10.17
2022-12-05T09:32:22.640Z,8.90
2022-12-05T09:34:50.537Z,8.27
2022-12-05T09:37:37.959Z,8.17
2022-12-05T09:40:04.476Z,7.73
2022-12-05T09:42:40.331Z,7.60
2022-12-05T09:45:23.978Z,7.60
2022-12-05T09:47:55.938Z,7.37
2022-12-05T09:50:25.629Z,8.30
2022-12-05T09:53:02.344Z,7.77
2022-12-05T09:55:36.098Z,7.33
2022-12-05T09:58:05.146Z,7.17
2022-12-05T10:00:33.046Z,6.60
2022-12-05T10:03:15.856Z,6.97
2022-12-05T10:05:49.274Z,6.27
2022-12-05T10:08:21.689Z,7.30
2022-12-05T10:10:59.929Z,6.50
2022-12-05T10:13:43.236Z,7.23
2022-12-05T10:16:13.944Z,6.47
2022-12-05T10:18:44.127Z,7.20
2022-12-05T10:21:18.526Z,6.63
2022-12-05T10:23:58.046Z,7.00
2022-12-05T10:26:28.530Z,6.47
2022-12-05T10:29:00.407Z,6.50
2022-12-05T10:31:30.903Z,6.80
2022-12-05T10:34:03.611Z,7.27
2022-12-05T10:36:31.791Z,7.03
2022-12-05T10:38:58.989Z,6.73
2022-12-05T10:41:25.609Z,7.10
2022-12-05T10:43:52.429Z,8.03
2022-12-05T10:46:19.261Z,8.20
2022-12-05T10:48:45.844Z,7.53
2022-12-05T10:51:14.709Z,6.77
2022-12-05T10:53:45.125Z,6.63
2022-12-05T10:56:40.170Z,17.17
2022-12-05T10:59:07.806Z,14.83
2022-12-05T11:01:37.593Z,10.40
2022-12-05T11:04:13.650Z,18.40
2022-12-05T11:06:50.594Z,20.37
2022-12-05T11:09:20.743Z,12.57
2022-12-05T11:12:01.066Z,11.67
2022-12-05T11:14:28.368Z,9.47
2022-12-05T11:16:57.317Z,9.93
2022-12-05T11:19:27.714Z,11.83
2022-12-05T11:21:55.110Z,9.10
2022-12-05T11:24:27.251Z,10.70
2022-12-05T11:26:54.064Z,8.93
2022-12-05T11:29:32.666Z,9.43
2022-12-05T11:31:59.658Z,9.33
2022-12-05T11:34:31.220Z,8.27
2022-12-05T11:37:04.901Z,8.40
2022-12-05T11:39:33.284Z,7.97
2022-12-05T11:42:27.932Z,6.73
2022-12-05T11:45:21.008Z,8.23
2022-12-05T11:48:09.785Z,8.23
2022-12-05T11:50:42.658Z,7.37
2022-12-05T11:53:47.926Z,8.23
2022-12-05T11:56:28.583Z,6.93
2022-12-05T11:59:04.102Z,7.10
2022-12-05T12:01:45.017Z,6.57
2022-12-05T12:04:44.430Z,6.97
2022-12-05T12:07:27.853Z,6.90
2022-12-05T12:10:09.790Z,6.83
2022-12-05T12:12:48.527Z,8.30
2022-12-05T12:15:31.122Z,7.17
2022-12-05T12:18:06.656Z,6.90
2022-12-05T12:20:44.401Z,6.83
2022-12-05T12:23:26.730Z,6.77
2022-12-05T12:26:06.167Z,7.83
2022-12-05T12:28:41.256Z,6.60
2022-12-05T12:31:26.554Z,7.07
2022-12-05T12:33:59.384Z,7.00
2022-12-05T12:36:28.107Z,6.60
2022-12-05T12:39:09.744Z,6.33
2022-12-05T12:41:50.894Z,7.63
2022-12-05T12:44:42.754Z,7.03
2022-12-05T12:47:14.811Z,6.93
2022-12-05T12:49:55.825Z,6.67
2022-12-05T12:52:25.443Z,6.13
2022-12-05T12:55:07.137Z,6.57
2022-12-05T12:57:52.010Z,6.40
2022-12-05T13:00:26.895Z,6.27
2022-12-05T13:02:59.518Z,6.70
2022-12-05T13:05:32.890Z,7.00
2022-12-05T13:08:04.837Z,7.43
2022-12-05T13:10:34.901Z,7.47
2022-12-05T13:13:03.849Z,7.43
2022-12-05T13:15:35.494Z,7.60
2022-12-05T13:18:04.345Z,6.70
2022-12-05T13:20:33.813Z,7.30
2022-12-05T13:23:07.679Z,8.07
2022-12-05T13:25:37.076Z,8.50
2022-12-05T13:28:07.268Z,7.73
2022-12-05T13:30:35.310Z,7.70
2022-12-05T13:33:06.061Z,6.67
2022-12-05T13:35:34.685Z,7.80
2022-12-05T13:38:01.265Z,7.10
2022-12-05T13:40:29.907Z,6.90
2022-12-05T13:43:01.615Z,6.90
2022-12-05T13:45:28.700Z,6.80
2022-12-05T13:48:08.994Z,7.17
2022-12-05T13:50:42.537Z,6.90
2022-12-05T13:53:23.716Z,6.73
2022-12-05T13:55:56.375Z,7.10
2022-12-05T13:58:46.698Z,7.17
2022-12-05T14:01:48.968Z,5.83
2022-12-05T14:04:44.948Z,6.23
2022-12-05T14:07:12.174Z,6.83
2022-12-05T14:09:53.690Z,6.27
2022-12-05T14:12:45.668Z,6.63
2022-12-05T14:15:30.514Z,7.27
2022-12-05T14:18:02.134Z,6.33
2022-12-05T14:20:46.442Z,6.33
2022-12-05T14:23:42.152Z,6.50
2022-12-05T14:26:22.884Z,7.30
2022-12-05T14:29:04.293Z,6.77
2022-12-05T14:31:45.512Z,6.33
2022-12-05T14:34:17.949Z,7.17
2022-12-05T14:36:59.295Z,6.43
2022-12-05T14:39:36.533Z,7.83
2022-12-05T14:42:07.826Z,10.33
2022-12-05T14:44:34.431Z,8.50
2022-12-05T14:47:02.782Z,8.53
2022-12-05T14:49:51.332Z,8.50
2022-12-05T14:52:22.415Z,14.47
2022-12-05T14:54:51.922Z,13.87
2022-12-05T14:57:20.002Z,11.83
2022-12-05T14:59:52.042Z,10.17
2022-12-05T15:02:24.561Z,9.27
2022-12-05T15:04:55.214Z,10.87
2022-12-05T15:07:33.876Z,10.50
2022-12-05T15:10:04.599Z,9.10
2022-12-05T15:12:36.746Z,9.10
2022-12-05T15:15:09.486Z,7.93
2022-12-05T15:17:39.507Z,8.20
2022-12-05T15:20:12.655Z,8.17
2022-12-05T15:22:40.600Z,9.07
2022-12-05T15:25:24.944Z,8.60
2022-12-05T15:27:54.076Z,9.10
2022-12-05T15:30:20.701Z,8.03
2022-12-05T15:32:47.403Z,17.77
2022-12-05T15:35:16.333Z,12.83
2022-12-05T15:37:50.454Z,11.63
2022-12-05T15:40:18.410Z,28.03
2022-12-05T15:42:46.602Z,19.27
2022-12-05T15:45:19.320Z,14.33
2022-12-05T15:47:47.647Z,9.83
2022-12-05T15:50:16.139Z,19.40
2022-12-05T15:52:49.095Z,13.97
2022-12-05T15:55:22.114Z,16.87
2022-12-05T15:57:53.906Z,13.67
2022-12-05T16:00:20.949Z,10.97
2022-12-05T16:02:52.475Z,9.17
2022-12-05T16:05:21.945Z,11.57
2022-12-05T16:07:51.253Z,11.10
2022-12-05T16:10:18.816Z,9.80
2022-12-05T16:12:45.391Z,9.07
2022-12-05T16:15:14.699Z,9.10
2022-12-05T16:17:45.213Z,8.27
2022-12-05T16:20:22.537Z,8.80
2022-12-05T16:22:52.698Z,8.67
2022-12-05T16:25:23.966Z,8.73
2022-12-05T16:27:58.534Z,8.40
2022-12-05T16:30:25.978Z,8.20
2022-12-05T16:32:59.970Z,8.30
2022-12-05T16:35:32.622Z,9.10
2022-12-05T16:38:11.576Z,8.63
2022-12-05T16:40:39.490Z,9.13
2022-12-05T16:43:17.760Z,9.10
2022-12-05T16:45:46.179Z,8.10
2022-12-05T16:48:22.160Z,10.27
2022-12-05T16:50:50.143Z,9.10
2022-12-05T16:53:22.786Z,9.20
2022-12-05T16:55:49.766Z,9.30
2022-12-05T16:58:21.945Z,8.10
2022-12-05T17:00:48.753Z,8.23
2022-12-05T17:03:33.356Z,8.87
2022-12-05T17:06:00.875Z,11.60
2022-12-05T17:08:28.794Z,10.40
2022-12-05T17:10:55.511Z,11.40
2022-12-05T17:13:22.090Z,10.53
2022-12-05T17:15:48.738Z,8.40
2022-12-05T17:18:17.342Z,10.50
2022-12-05T17:20:47.645Z,12.23
2022-12-05T17:23:14.844Z,12.60
2022-12-05T17:25:45.833Z,11.80
2022-12-05T17:28:12.393Z,10.87
2022-12-05T17:30:38.999Z,13.27
2022-12-05T17:33:06.240Z,10.83
2022-12-05T17:35:32.990Z,8.90
2022-12-05T17:37:59.734Z,10.17
2022-12-05T17:40:26.254Z,10.17
2022-12-05T17:42:54.197Z,9.43
2022-12-05T17:45:20.941Z,8.07
2022-12-05T17:47:47.657Z,8.33
2022-12-05T17:50:15.876Z,8.10
2022-12-05T17:52:42.865Z,10.60
2022-12-05T17:55:16.288Z,10.27
2022-12-05T17:57:42.879Z,9.17
2022-12-05T18:00:13.039Z,8.47
2022-12-05T18:02:39.677Z,7.93
2022-12-05T18:05:06.907Z,8.37
2022-12-05T18:07:33.590Z,8.10
2022-12-05T18:10:00.141Z,8.30
2022-12-05T18:12:26.777Z,8.43
2022-12-05T18:14:53.363Z,7.27
2022-12-05T18:17:21.282Z,6.67
2022-12-05T18:19:47.828Z,6.90
2022-12-05T18:22:17.089Z,6.90
2022-12-05T18:24:46.746Z,7.33
2022-12-05T18:27:13.343Z,6.70
2022-12-05T18:29:39.889Z,6.23
2022-12-05T18:32:06.606Z,6.67
2022-12-05T18:34:34.571Z,6.20
2022-12-05T18:37:01.136Z,6.10
2022-12-05T18:39:27.657Z,5.83
2022-12-05T18:41:54.200Z,5.77
2022-12-05T18:44:20.758Z,5.60
2022-12-05T18:46:47.305Z,5.00
2022-12-05T18:49:14.131Z,5.00
2022-12-05T18:51:42.066Z,5.00
2022-12-05T18:54:08.647Z,4.70
2022-12-05T18:56:36.220Z,4.83
2022-12-05T18:59:04.883Z,4.80
2022-12-05T19:01:32.752Z,5.03
2022-12-05T19:04:00.854Z,5.00
2022-12-05T19:06:29.448Z,4.90
2022-12-05T19:08:59.004Z,6.50
2022-12-05T19:11:27.193Z,24.40
2022-12-05T19:13:55.250Z,16.97
2022-12-05T19:16:21.894Z,12.73
2022-12-05T19:18:53.072Z,8.53
2022-12-05T19:21:19.611Z,6.97
2022-12-05T19:23:46.236Z,6.97
2022-12-05T19:26:14.157Z,10.67
2022-12-05T19:28:40.738Z,11.07
2022-12-05T19:31:08.766Z,13.57
2022-12-05T19:33:36.759Z,10.77
2022-12-05T19:36:05.880Z,7.97
2022-12-05T19:38:33.066Z,10.50
2022-12-05T19:40:59.764Z,31.87
2022-12-05T19:43:28.069Z,24.10
2022-12-05T19:45:54.619Z,13.77
2022-12-05T19:48:21.337Z,13.37
2022-12-05T19:50:53.014Z,12.03
2022-12-05T19:53:19.705Z,9.47
2022-12-05T19:55:46.324Z,16.80
2022-12-05T19:58:12.902Z,7.90
2022-12-05T20:00:40.863Z,5.40
2022-12-05T20:03:12.022Z,4.23
2022-12-05T20:05:38.933Z,6.33
2022-12-05T20:08:05.614Z,4.27
2022-12-05T20:10:34.240Z,3.53
2022-12-05T20:13:05.473Z,5.67
2022-12-05T20:15:33.048Z,4.07
2022-12-05T20:18:00.957Z,3.47
2022-12-05T20:20:27.483Z,3.23
2022-12-05T20:22:54.045Z,2.70
2022-12-05T20:25:20.555Z,3.53
2022-12-05T20:27:47.110Z,2.97
2022-12-05T20:30:13.678Z,2.90
2022-12-05T20:32:40.233Z,3.60
2022-12-05T20:35:08.557Z,3.43
2022-12-05T20:37:35.644Z,3.10
2022-12-05T20:40:02.940Z,3.10
2022-12-05T20:42:29.548Z,4.07
2022-12-05T20:44:56.085Z,4.33
2022-12-05T20:47:22.646Z,3.97
2022-12-05T20:49:49.161Z,3.97
2022-12-05T20:52:17.052Z,3.80
2022-12-05T20:54:43.589Z,3.90
2022-12-05T20:57:10.126Z,4.07
2022-12-05T20:59:36.652Z,5.33
2022-12-05T21:02:03.221Z,6.23
2022-12-05T21:04:29.923Z,6.10
2022-12-05T21:06:56.427Z,6.70
2022-12-05T21:09:24.502Z,6.13
2022-12-05T21:11:51.037Z,6.13
2022-12-05T21:14:17.657Z,6.47
2022-12-05T21:16:44.192Z,4.80
2022-12-05T21:19:10.835Z,5.23
2022-12-05T21:21:38.037Z,4.97
2022-12-05T21:24:05.803Z,5.17
2022-12-05T21:26:34.778Z,4.57
2022-12-05T21:29:02.172Z,4.37
2022-12-05T21:31:30.332Z,4.73
2022-12-05T21:33:58.696Z,4.57
2022-12-05T21:36:27.571Z,5.20
2022-12-05T21:38:56.166Z,4.70
2022-12-05T21:41:23.304Z,5.70
2022-12-05T21:43:54.971Z,7.67
2022-12-05T21:46:22.266Z,9.80
2022-12-05T21:48:49.572Z,22.47
2022-12-05T21:51:16.088Z,20.40
2022-12-05T21:53:42.645Z,12.17
2022-12-05T21:56:11.750Z,44.53
2022-12-05T21:58:42.081Z,72.23
2022-12-05T22:01:11.333Z,85.23
2022-12-05T22:03:38.149Z,53.90
2022-12-05T22:06:07.320Z,44.03
2022-12-05T22:08:34.834Z,44.60
2022-12-05T22:11:06.089Z,41.77
2022-12-05T22:13:33.003Z,48.13
2022-12-05T22:15:59.945Z,40.73
2022-12-05T22:18:28.487Z,24.60
2022-12-05T22:20:56.246Z,19.73
2022-12-05T22:23:22.758Z,21.87
2022-12-05T22:25:56.019Z,15.30
2022-12-05T22:28:22.570Z,15.07
2022-12-05T22:30:49.115Z,23.87
2022-12-05T22:33:15.705Z,26.37
2022-12-05T22:35:43.591Z,24.00
2022-12-05T22:38:10.168Z,15.13
2022-12-05T22:40:36.904Z,11.13
2022-12-05T22:43:03.451Z,8.87
2022-12-05T22:45:29.954Z,7.80
2022-12-05T22:47:56.505Z,6.70
2022-12-05T22:50:23.040Z,6.63
2022-12-05T22:52:50.969Z,5.87
2022-12-05T22:55:17.464Z,5.00
2022-12-05T22:57:43.981Z,4.30
2022-12-05T23:00:11.786Z,4.20
2022-12-05T23:02:38.310Z,4.40
2022-12-05T23:05:05.101Z,4.40
2022-12-05T23:07:31.631Z,3.60
2022-12-05T23:09:59.847Z,4.03
2022-12-05T23:12:26.734Z,4.00
2022-12-05T23:14:53.254Z,3.90
2022-12-05T23:17:19.766Z,3.60
2022-12-05T23:19:46.316Z,2.90
2022-12-05T23:22:12.836Z,2.70
2022-12-05T23:24:39.339Z,2.77
2022-12-05T23:27:07.217Z,2.80
2022-12-05T23:29:33.736Z,2.90
2022-12-05T23:32:00.333Z,2.57
2022-12-05T23:34:26.908Z,2.83
2022-12-05T23:36:53.439Z,2.40
2022-12-05T23:39:20.101Z,2.10
2022-12-05T23:41:46.654Z,2.23
2022-12-05T23:44:14.544Z,2.30
2022-12-05T23:46:41.130Z,2.40
2022-12-05T23:49:07.790Z,2.60
2022-12-05T23:51:35.342Z,2.00
2022-12-05T23:54:02.065Z,2.00
2022-12-05T23:56:31.512Z,2.23
2022-12-05T23:58:58.427Z,2.00
